createdAt,value
2023-05-19T00:00:26.832Z,10.83
2023-05-19T00:01:26.795Z,10.80
2023-05-19T00:02:26.883Z,10.80
2023-05-19T00:03:26.824Z,10.78
2023-05-19T00:04:26.766Z,10.80
2023-05-19T00:05:26.793Z,10.78
2023-05-19T00:06:26.885Z,10.72
2023-05-19T00:07:26.761Z,10.70
2023-05-19T00:08:26.757Z,10.63
2023-05-19T00:09:26.741Z,10.63
2023-05-19T00:10:26.753Z,10.63
2023-05-19T00:11:26.724Z,10.60
2023-05-19T00:12:26.723Z,10.54
2023-05-19T00:13:26.685Z,10.54
2023-05-19T00:14:26.775Z,10.51
2023-05-19T00:15:26.648Z,10.55
2023-05-19T00:16:26.725Z,10.54
2023-05-19T00:17:26.629Z,10.51
2023-05-19T00:18:26.681Z,10.47
2023-05-19T00:19:26.659Z,10.49
2023-05-19T00:20:26.608Z,10.47
2023-05-19T00:21:26.597Z,10.46
2023-05-19T00:22:26.610Z,10.43
2023-05-19T00:23:26.577Z,10.43
2023-05-19T00:24:26.600Z,10.42
2023-05-19T00:25:26.529Z,10.43
2023-05-19T00:26:27.012Z,10.43
2023-05-19T00:27:26.542Z,10.44
2023-05-19T00:28:26.572Z,10.38
2023-05-19T00:29:26.552Z,10.39
2023-05-19T00:30:26.519Z,10.36
2023-05-19T00:31:26.512Z,10.36
2023-05-19T00:32:26.505Z,10.34
2023-05-19T00:33:26.465Z,10.29
2023-05-19T00:34:26.528Z,10.31
2023-05-19T00:35:26.453Z,10.28
2023-05-19T00:36:26.418Z,10.25
2023-05-19T00:37:26.462Z,10.24
2023-05-19T00:38:26.438Z,10.18
2023-05-19T00:39:26.396Z,10.18
2023-05-19T00:40:26.475Z,10.16
2023-05-19T00:41:26.407Z,10.14
2023-05-19T00:42:26.392Z,10.10
2023-05-19T00:43:26.393Z,10.04
2023-05-19T00:44:26.348Z,10.02
2023-05-19T00:45:26.421Z,9.98
2023-05-19T00:46:26.422Z,10.01
2023-05-19T00:47:26.391Z,10.02
2023-05-19T00:48:26.396Z,9.99
2023-05-19T00:49:26.286Z,9.96
2023-05-19T00:50:26.306Z,9.93
2023-05-19T00:51:26.324Z,9.92
2023-05-19T00:52:26.296Z,9.92
2023-05-19T00:53:26.296Z,9.91
2023-05-19T00:54:26.241Z,9.89
2023-05-19T00:55:26.250Z,9.88
2023-05-19T00:56:26.245Z,9.86
2023-05-19T00:57:26.229Z,9.85
2023-05-19T00:58:26.219Z,9.88
2023-05-19T00:59:26.174Z,9.88
2023-05-19T01:00:26.188Z,9.85
2023-05-19T01:01:26.210Z,9.83
2023-05-19T01:02:26.501Z,9.81
2023-05-19T01:03:26.257Z,9.75
2023-05-19T01:04:26.132Z,9.73
2023-05-19T01:05:26.112Z,9.70
2023-05-19T01:06:26.127Z,9.68
2023-05-19T01:07:26.117Z,9.67
2023-05-19T01:08:26.107Z,9.63
2023-05-19T01:09:26.108Z,9.67
2023-05-19T01:10:26.082Z,9.70
2023-05-19T01:11:26.052Z,9.67
2023-05-19T01:12:26.093Z,9.65
2023-05-19T01:13:26.064Z,9.67
2023-05-19T01:14:26.087Z,9.62
2023-05-19T01:15:26.047Z,9.60
2023-05-19T01:16:26.101Z,9.60
2023-05-19T01:17:26.087Z,9.55
2023-05-19T01:18:26.515Z,9.53
2023-05-19T01:19:26.022Z,9.52
2023-05-19T01:20:26.080Z,9.53
2023-05-19T01:21:25.977Z,9.52
2023-05-19T01:22:25.999Z,9.50
2023-05-19T01:23:26.029Z,9.50
2023-05-19T01:24:25.941Z,9.53
2023-05-19T01:25:25.917Z,9.56
2023-05-19T01:26:27.112Z,9.55
2023-05-19T01:27:25.941Z,9.50
2023-05-19T01:28:25.876Z,9.52
2023-05-19T01:29:25.919Z,9.53
2023-05-19T01:30:25.923Z,9.48
2023-05-19T01:31:25.920Z,9.48
2023-05-19T01:32:25.910Z,9.45
2023-05-19T01:33:25.882Z,9.44
2023-05-19T01:34:25.811Z,9.45
2023-05-19T01:35:25.814Z,9.45
2023-05-19T01:36:25.804Z,9.48
2023-05-19T01:37:25.794Z,9.48
2023-05-19T01:38:25.832Z,9.45
2023-05-19T01:39:25.805Z,9.42
2023-05-19T01:40:25.827Z,9.45
2023-05-19T01:41:25.747Z,9.45
2023-05-19T01:42:25.747Z,9.48
2023-05-19T01:43:25.727Z,9.44
2023-05-19T01:44:25.724Z,9.44
2023-05-19T01:45:25.780Z,9.42
2023-05-19T01:46:25.922Z,9.45
2023-05-19T01:47:25.732Z,9.41
2023-05-19T01:48:25.763Z,9.44
2023-05-19T01:49:25.676Z,9.45
2023-05-19T01:50:25.692Z,9.40
2023-05-19T01:51:25.648Z,9.40
2023-05-19T01:52:25.653Z,9.37
2023-05-19T01:53:25.615Z,9.38
2023-05-19T01:54:25.691Z,9.37
2023-05-19T01:55:25.621Z,9.38
2023-05-19T01:56:25.636Z,9.35
2023-05-19T01:57:25.644Z,9.32
2023-05-19T01:58:25.619Z,9.35
2023-05-19T01:59:25.604Z,9.34
2023-05-19T02:00:25.591Z,9.32
2023-05-19T02:01:25.762Z,9.31
2023-05-19T02:02:25.575Z,9.30
2023-05-19T02:03:25.587Z,9.26
2023-05-19T02:04:25.570Z,9.26
2023-05-19T02:05:25.512Z,9.23
2023-05-19T02:06:25.516Z,9.23
2023-05-19T02:07:25.491Z,9.22
2023-05-19T02:08:25.475Z,9.23
2023-05-19T02:09:25.461Z,9.22
2023-05-19T02:10:25.502Z,9.16
2023-05-19T02:11:25.453Z,9.16
2023-05-19T02:12:26.045Z,9.16
2023-05-19T02:13:25.449Z,9.13
2023-05-19T02:14:25.444Z,9.12
2023-05-19T02:15:25.394Z,9.15
2023-05-19T02:16:25.456Z,9.10
2023-05-19T02:17:25.422Z,9.06
2023-05-19T02:18:25.432Z,9.04
2023-05-19T02:19:25.472Z,9.06
2023-05-19T02:20:25.350Z,9.04
2023-05-19T02:21:25.330Z,9.03
2023-05-19T02:22:25.319Z,9.01
2023-05-19T02:23:25.321Z,9.04
2023-05-19T02:24:25.345Z,9.01
2023-05-19T02:25:25.359Z,9.03
2023-05-19T02:26:25.458Z,9.04
2023-05-19T02:27:25.317Z,9.04
2023-05-19T02:28:25.316Z,9.00
2023-05-19T02:29:25.273Z,8.97
2023-05-19T02:30:25.258Z,8.98
2023-05-19T02:31:25.285Z,8.97
2023-05-19T02:32:25.550Z,8.96
2023-05-19T02:33:25.302Z,8.94
2023-05-19T02:34:25.213Z,8.96
2023-05-19T02:35:25.268Z,8.93
2023-05-19T02:36:25.190Z,8.93
2023-05-19T02:37:25.189Z,8.91
2023-05-19T02:38:25.239Z,8.93
2023-05-19T02:39:25.137Z,8.91
2023-05-19T02:40:25.123Z,8.89
2023-05-19T02:41:25.112Z,8.89
2023-05-19T02:42:25.109Z,8.88
2023-05-19T02:43:25.131Z,8.89
2023-05-19T02:44:25.140Z,8.88
2023-05-19T02:45:25.087Z,8.86
2023-05-19T02:46:25.138Z,8.83
2023-05-19T02:47:25.079Z,8.83
2023-05-19T02:48:25.042Z,8.80
2023-05-19T02:49:25.057Z,8.78
2023-05-19T02:50:25.069Z,8.75
2023-05-19T02:51:25.084Z,8.76
2023-05-19T02:52:25.024Z,8.75
2023-05-19T02:53:24.994Z,8.71
2023-05-19T02:54:24.997Z,8.70
2023-05-19T02:55:24.971Z,8.70
2023-05-19T02:56:24.958Z,8.71
2023-05-19T02:57:24.984Z,8.68
2023-05-19T02:58:24.962Z,8.68
2023-05-19T02:59:25.731Z,8.65
2023-05-19T03:00:24.911Z,8.65
2023-05-19T03:01:24.939Z,8.64
2023-05-19T03:02:25.012Z,8.64
2023-05-19T03:03:25.234Z,8.65
2023-05-19T03:04:24.862Z,8.67
2023-05-19T03:05:24.879Z,8.68
2023-05-19T03:06:24.878Z,8.68
2023-05-19T03:07:25.701Z,8.67
2023-05-19T03:08:24.854Z,8.65
2023-05-19T03:09:24.874Z,8.67
2023-05-19T03:10:24.815Z,8.64
2023-05-19T03:11:26.569Z,8.61
2023-05-19T03:12:24.799Z,8.63
2023-05-19T03:13:24.775Z,8.61
2023-05-19T03:14:24.812Z,8.63
2023-05-19T03:15:24.792Z,8.60
2023-05-19T03:16:24.966Z,8.58
2023-05-19T03:17:24.858Z,8.60
2023-05-19T03:18:24.846Z,8.58
2023-05-19T03:19:24.898Z,8.58
2023-05-19T03:20:24.709Z,8.57
2023-05-19T03:21:24.707Z,8.57
2023-05-19T03:22:24.700Z,8.58
2023-05-19T03:23:24.680Z,8.58
2023-05-19T03:24:24.732Z,8.57
2023-05-19T03:25:24.672Z,8.55
2023-05-19T03:26:24.694Z,8.55
2023-05-19T03:27:24.671Z,8.57
2023-05-19T03:28:24.702Z,8.58
2023-05-19T03:29:24.634Z,8.57
2023-05-19T03:30:24.626Z,8.58
2023-05-19T03:31:24.597Z,8.58
2023-05-19T03:32:24.737Z,8.60
2023-05-19T03:33:24.807Z,8.58
2023-05-19T03:34:24.635Z,8.57
2023-05-19T03:35:24.553Z,8.60
2023-05-19T03:36:24.576Z,8.57
2023-05-19T03:37:24.532Z,8.55
2023-05-19T03:38:24.573Z,8.57
2023-05-19T03:39:24.527Z,8.55
2023-05-19T03:40:24.555Z,8.54
2023-05-19T03:41:24.490Z,8.55
2023-05-19T03:42:24.484Z,8.55
2023-05-19T03:43:24.496Z,8.54
2023-05-19T03:44:24.527Z,8.55
2023-05-19T03:45:24.488Z,8.54
2023-05-19T03:46:24.577Z,8.54
2023-05-19T03:47:24.552Z,8.54
2023-05-19T03:48:24.471Z,8.52
2023-05-19T03:49:24.649Z,8.54
2023-05-19T03:50:24.446Z,8.52
2023-05-19T03:51:24.421Z,8.52
2023-05-19T03:52:24.436Z,8.52
2023-05-19T03:53:24.383Z,8.50
2023-05-19T03:54:24.394Z,8.49
2023-05-19T03:55:24.374Z,8.50
2023-05-19T03:56:24.372Z,8.50
2023-05-19T03:57:24.334Z,8.52
2023-05-19T03:58:24.352Z,8.52
2023-05-19T03:59:24.317Z,8.54
2023-05-19T04:00:24.308Z,8.54
2023-05-19T04:01:24.299Z,8.55
2023-05-19T04:02:24.398Z,8.57
2023-05-19T04:03:24.703Z,8.55
2023-05-19T04:04:24.405Z,8.58
2023-05-19T04:05:24.287Z,8.58
2023-05-19T04:06:24.230Z,8.58
2023-05-19T04:07:24.229Z,8.57
2023-05-19T04:08:24.243Z,8.57
2023-05-19T04:09:24.212Z,8.55
2023-05-19T04:10:24.224Z,8.52
2023-05-19T04:11:24.194Z,8.55
2023-05-19T04:12:24.171Z,8.54
2023-05-19T04:13:24.179Z,8.52
2023-05-19T04:14:24.190Z,8.54
2023-05-19T04:15:24.152Z,8.54
2023-05-19T04:16:24.241Z,8.55
2023-05-19T04:17:24.175Z,8.54
2023-05-19T04:18:25.126Z,8.55
2023-05-19T04:19:24.172Z,8.57
2023-05-19T04:20:24.088Z,8.57
2023-05-19T04:21:24.095Z,8.57
2023-05-19T04:22:24.087Z,8.61
2023-05-19T04:23:24.095Z,8.60
2023-05-19T04:24:24.050Z,8.60
2023-05-19T04:25:24.037Z,8.61
2023-05-19T04:26:24.024Z,8.60
2023-05-19T04:27:24.018Z,8.63
2023-05-19T04:28:24.035Z,8.63
2023-05-19T04:29:24.025Z,8.63
2023-05-19T04:30:23.999Z,8.64
2023-05-19T04:31:24.080Z,8.64
2023-05-19T04:32:23.975Z,8.64
2023-05-19T04:33:24.162Z,8.64
2023-05-19T04:34:23.977Z,8.67
2023-05-19T04:35:23.947Z,8.67
2023-05-19T04:36:23.932Z,8.71
2023-05-19T04:37:23.946Z,8.67
2023-05-19T04:38:23.916Z,8.67
2023-05-19T04:39:23.888Z,8.70
2023-05-19T04:40:23.956Z,8.68
2023-05-19T04:41:23.884Z,8.68
2023-05-19T04:42:23.870Z,8.67
2023-05-19T04:43:23.849Z,8.71
2023-05-19T04:44:23.828Z,8.71
2023-05-19T04:45:23.838Z,8.71
2023-05-19T04:46:23.967Z,8.73
2023-05-19T04:47:23.870Z,8.71
2023-05-19T04:48:23.808Z,8.70
2023-05-19T04:49:23.806Z,8.70
2023-05-19T04:50:23.799Z,8.71
2023-05-19T04:51:23.793Z,8.73
2023-05-19T04:52:23.772Z,8.70
2023-05-19T04:53:23.772Z,8.73
2023-05-19T04:54:23.730Z,8.70
2023-05-19T04:55:23.758Z,8.70
2023-05-19T04:56:23.741Z,8.75
2023-05-19T04:57:23.715Z,8.73
2023-05-19T04:58:23.748Z,8.78
2023-05-19T04:59:24.543Z,8.79
2023-05-19T05:00:23.681Z,8.79
2023-05-19T05:01:23.671Z,8.83
2023-05-19T05:02:23.803Z,8.85
2023-05-19T05:03:23.748Z,8.88
2023-05-19T05:04:23.834Z,8.91
2023-05-19T05:05:23.651Z,8.94
2023-05-19T05:06:23.602Z,8.97
2023-05-19T05:07:23.650Z,8.94
2023-05-19T05:08:23.563Z,8.97
2023-05-19T05:09:23.584Z,9.00
2023-05-19T05:10:23.573Z,9.04
2023-05-19T05:11:23.575Z,9.04
2023-05-19T05:12:23.577Z,9.08
2023-05-19T05:13:23.565Z,9.16
2023-05-19T05:14:23.558Z,9.16
2023-05-19T05:15:23.496Z,9.16
2023-05-19T05:16:23.536Z,9.23
2023-05-19T05:17:23.525Z,9.26
2023-05-19T05:18:23.503Z,9.30
2023-05-19T05:19:23.509Z,9.31
2023-05-19T05:20:23.455Z,9.35
2023-05-19T05:21:23.475Z,9.42
2023-05-19T05:22:23.434Z,9.53
2023-05-19T05:23:23.465Z,9.56
2023-05-19T05:24:23.455Z,9.60
2023-05-19T05:25:23.388Z,9.65
2023-05-19T05:26:23.387Z,9.71
2023-05-19T05:27:23.383Z,9.77
2023-05-19T05:28:23.380Z,9.83
2023-05-19T05:29:23.360Z,9.86
2023-05-19T05:30:23.406Z,9.92
2023-05-19T05:31:23.350Z,9.92
2023-05-19T05:32:23.362Z,9.93
2023-05-19T05:33:23.463Z,9.98
2023-05-19T05:34:23.375Z,10.06
2023-05-19T05:35:23.383Z,10.09
2023-05-19T05:36:23.287Z,10.11
2023-05-19T05:37:23.275Z,10.18
2023-05-19T05:38:23.257Z,10.24
2023-05-19T05:39:23.278Z,10.31
2023-05-19T05:40:23.270Z,10.36
2023-05-19T05:41:23.245Z,10.47
2023-05-19T05:42:23.224Z,10.49
2023-05-19T05:43:23.210Z,10.57
2023-05-19T05:44:23.189Z,10.66
2023-05-19T05:45:23.247Z,10.68
2023-05-19T05:46:23.232Z,10.65
2023-05-19T05:47:23.192Z,10.69
2023-05-19T05:48:23.167Z,10.63
2023-05-19T05:49:23.178Z,10.60
2023-05-19T05:50:23.152Z,10.68
2023-05-19T05:51:23.164Z,10.69
2023-05-19T05:52:23.158Z,10.73
2023-05-19T05:53:23.125Z,10.75
2023-05-19T05:54:23.101Z,10.87
2023-05-19T05:55:23.089Z,10.87
2023-05-19T05:56:23.068Z,10.93
2023-05-19T05:57:23.086Z,11.02
2023-05-19T05:58:23.054Z,11.08
2023-05-19T05:59:23.061Z,11.12
2023-05-19T06:00:23.069Z,11.12
2023-05-19T06:01:23.056Z,11.19
2023-05-19T06:02:23.061Z,11.26
2023-05-19T06:03:23.162Z,11.31
2023-05-19T06:04:23.192Z,11.35
2023-05-19T06:05:23.004Z,11.41
2023-05-19T06:06:22.964Z,11.44
2023-05-19T06:07:22.992Z,11.42
2023-05-19T06:08:22.948Z,11.41
2023-05-19T06:09:22.937Z,11.42
2023-05-19T06:10:22.963Z,11.49
2023-05-19T06:11:22.939Z,11.60
2023-05-19T06:12:22.918Z,11.69
2023-05-19T06:13:22.895Z,11.74
2023-05-19T06:14:22.885Z,11.77
2023-05-19T06:15:22.970Z,11.79
2023-05-19T06:16:22.948Z,11.85
2023-05-19T06:17:22.861Z,11.85
2023-05-19T06:18:22.836Z,11.90
2023-05-19T06:19:22.983Z,11.87
2023-05-19T06:20:22.880Z,11.82
2023-05-19T06:21:22.832Z,11.81
2023-05-19T06:22:22.815Z,11.94
2023-05-19T06:23:22.884Z,11.93
2023-05-19T06:24:22.764Z,11.84
2023-05-19T06:25:22.786Z,11.84
2023-05-19T06:26:22.773Z,11.79
2023-05-19T06:27:22.775Z,11.87
2023-05-19T06:28:22.790Z,11.85
2023-05-19T06:29:22.755Z,11.93
2023-05-19T06:30:22.726Z,12.01
2023-05-19T06:31:22.803Z,12.08
2023-05-19T06:32:22.756Z,12.16
2023-05-19T06:33:22.698Z,12.23
2023-05-19T06:34:22.701Z,12.38
2023-05-19T06:35:22.674Z,12.46
2023-05-19T06:36:22.687Z,12.40
2023-05-19T06:37:22.639Z,12.40
2023-05-19T06:38:22.695Z,12.41
2023-05-19T06:39:22.646Z,12.48
2023-05-19T06:40:22.628Z,12.41
2023-05-19T06:41:22.619Z,12.30
2023-05-19T06:42:22.655Z,12.40
2023-05-19T06:43:22.624Z,12.38
2023-05-19T06:44:22.570Z,12.44
2023-05-19T06:45:22.723Z,12.56
2023-05-19T06:46:22.583Z,12.62
2023-05-19T06:47:22.617Z,12.81
2023-05-19T06:48:22.517Z,12.91
2023-05-19T06:49:22.533Z,12.69
2023-05-19T06:50:22.539Z,12.61
2023-05-19T06:51:22.557Z,12.48
2023-05-19T06:52:22.505Z,12.54
2023-05-19T06:53:23.147Z,12.54
2023-05-19T06:54:22.460Z,12.54
2023-05-19T06:55:22.463Z,12.51
2023-05-19T06:56:22.489Z,12.52
2023-05-19T06:57:22.464Z,12.52
2023-05-19T06:58:22.452Z,12.55
2023-05-19T06:59:22.433Z,12.66
2023-05-19T07:00:31.888Z,12.71
2023-05-19T07:01:22.494Z,12.70
2023-05-19T07:02:22.428Z,12.76
2023-05-19T07:03:22.502Z,12.77
2023-05-19T07:04:22.381Z,12.94
2023-05-19T07:05:22.377Z,12.99
2023-05-19T07:06:22.335Z,12.98
2023-05-19T07:07:22.412Z,12.96
2023-05-19T07:08:22.363Z,12.99
2023-05-19T07:09:22.399Z,12.99
2023-05-19T07:10:22.325Z,13.12
2023-05-19T07:11:22.291Z,13.32
2023-05-19T07:12:22.273Z,13.39
2023-05-19T07:13:23.553Z,13.44
2023-05-19T07:14:22.295Z,13.54
2023-05-19T07:15:22.278Z,13.46
2023-05-19T07:16:22.308Z,13.48
2023-05-19T07:17:22.443Z,13.63
2023-05-19T07:18:22.292Z,13.65
2023-05-19T07:19:22.395Z,13.63
2023-05-19T07:20:22.225Z,13.62
2023-05-19T07:21:22.206Z,13.65
2023-05-19T07:22:22.202Z,13.68
2023-05-19T07:23:22.210Z,13.80
2023-05-19T07:24:22.179Z,13.72
2023-05-19T07:25:22.160Z,13.76
2023-05-19T07:26:22.153Z,13.91
2023-05-19T07:27:22.118Z,14.01
2023-05-19T07:28:22.169Z,14.11
2023-05-19T07:29:22.118Z,14.27
2023-05-19T07:30:22.098Z,14.36
2023-05-19T07:31:22.134Z,14.52
2023-05-19T07:32:22.232Z,14.63
2023-05-19T07:33:22.092Z,14.69
2023-05-19T07:34:22.310Z,14.90
2023-05-19T07:35:22.284Z,15.00
2023-05-19T07:36:22.053Z,14.91
2023-05-19T07:37:22.038Z,15.07
2023-05-19T07:38:22.031Z,15.11
2023-05-19T07:39:22.053Z,15.23
2023-05-19T07:40:21.974Z,15.28
2023-05-19T07:41:21.985Z,15.31
2023-05-19T07:42:21.968Z,15.15
2023-05-19T07:43:22.045Z,15.23
2023-05-19T07:44:21.960Z,15.19
2023-05-19T07:45:21.961Z,15.31
2023-05-19T07:46:21.940Z,15.44
2023-05-19T07:47:21.936Z,15.64
2023-05-19T07:48:21.932Z,15.78
2023-05-19T07:49:21.918Z,15.88
2023-05-19T07:50:21.945Z,15.92
2023-05-19T07:51:21.881Z,15.86
2023-05-19T07:52:21.873Z,15.70
2023-05-19T07:53:21.854Z,15.68
2023-05-19T07:54:22.063Z,15.76
2023-05-19T07:55:21.862Z,15.81
2023-05-19T07:56:22.588Z,15.89
2023-05-19T07:57:21.845Z,16.10
2023-05-19T07:58:21.868Z,16.07
2023-05-19T07:59:21.770Z,16.04
2023-05-19T08:00:21.779Z,16.11
2023-05-19T08:01:21.767Z,15.85
2023-05-19T08:02:21.851Z,16.06
2023-05-19T08:03:21.806Z,16.11
2023-05-19T08:04:21.788Z,16.26
2023-05-19T08:05:21.712Z,16.45
2023-05-19T08:06:21.708Z,16.44
2023-05-19T08:07:21.709Z,16.11
2023-05-19T08:08:21.708Z,16.17
2023-05-19T08:09:21.663Z,16.32
2023-05-19T08:10:21.737Z,16.40
2023-05-19T08:11:21.727Z,16.45
2023-05-19T08:12:21.655Z,16.48
2023-05-19T08:13:21.673Z,16.59
2023-05-19T08:14:21.665Z,16.37
2023-05-19T08:15:21.637Z,16.42
2023-05-19T08:16:21.779Z,16.50
2023-05-19T08:17:21.635Z,16.65
2023-05-19T08:18:21.608Z,16.60
2023-05-19T08:19:22.132Z,16.73
2023-05-19T08:20:21.595Z,16.77
2023-05-19T08:21:21.541Z,16.78
2023-05-19T08:22:21.570Z,16.70
2023-05-19T08:23:21.560Z,16.60
2023-05-19T08:24:21.532Z,16.54
2023-05-19T08:25:21.756Z,16.57
2023-05-19T08:26:21.523Z,16.66
2023-05-19T08:27:21.535Z,16.77
2023-05-19T08:28:21.511Z,16.80
2023-05-19T08:29:21.512Z,16.73
2023-05-19T08:30:21.505Z,16.85
2023-05-19T08:31:21.505Z,17.00
2023-05-19T08:32:21.553Z,16.85
2023-05-19T08:33:21.443Z,16.92
2023-05-19T08:34:21.410Z,17.00
2023-05-19T08:35:21.426Z,17.20
2023-05-19T08:36:21.423Z,17.12
2023-05-19T08:37:21.426Z,17.28
2023-05-19T08:38:21.410Z,17.35
2023-05-19T08:39:21.376Z,17.30
2023-05-19T08:40:21.395Z,17.38
2023-05-19T08:41:21.363Z,17.40
2023-05-19T08:42:21.360Z,17.43
2023-05-19T08:43:21.339Z,17.43
2023-05-19T08:44:21.380Z,17.46
2023-05-19T08:45:21.302Z,17.42
2023-05-19T08:46:21.328Z,17.22
2023-05-19T08:47:21.297Z,17.12
2023-05-19T08:48:21.283Z,17.21
2023-05-19T08:49:22.207Z,17.33
2023-05-19T08:50:21.274Z,17.43
2023-05-19T08:51:21.251Z,17.22
2023-05-19T08:52:21.225Z,17.21
2023-05-19T08:53:32.588Z,17.17
2023-05-19T08:54:21.212Z,17.07
2023-05-19T08:55:21.182Z,17.07
2023-05-19T08:56:21.208Z,16.98
2023-05-19T08:57:21.160Z,17.03
2023-05-19T08:58:21.170Z,17.03
2023-05-19T08:59:21.168Z,17.03
2023-05-19T09:00:21.150Z,17.15
2023-05-19T09:01:21.299Z,17.12
2023-05-19T09:02:21.152Z,17.20
2023-05-19T09:03:23.951Z,17.07
2023-05-19T09:04:21.273Z,17.09
2023-05-19T09:05:21.118Z,17.24
2023-05-19T09:06:21.104Z,17.35
2023-05-19T09:07:21.082Z,17.45
2023-05-19T09:08:21.118Z,17.51
2023-05-19T09:09:21.048Z,17.66
2023-05-19T09:10:21.100Z,17.91
2023-05-19T09:11:21.074Z,18.07
2023-05-19T09:12:21.024Z,18.16
2023-05-19T09:13:21.013Z,18.11
2023-05-19T09:14:20.982Z,18.35
2023-05-19T09:15:21.014Z,18.44
2023-05-19T09:16:21.014Z,18.35
2023-05-19T09:17:21.023Z,18.26
2023-05-19T09:18:21.008Z,18.34
2023-05-19T09:19:21.044Z,18.07
2023-05-19T09:20:20.915Z,17.96
2023-05-19T09:21:20.909Z,17.70
2023-05-19T09:22:20.898Z,17.68
2023-05-19T09:23:20.933Z,17.76
2023-05-19T09:24:20.915Z,17.89
2023-05-19T09:25:20.919Z,17.99
2023-05-19T09:26:20.894Z,18.09
2023-05-19T09:27:20.906Z,18.26
2023-05-19T09:28:20.864Z,18.25
2023-05-19T09:29:20.826Z,18.05
2023-05-19T09:30:20.844Z,17.95
2023-05-19T09:31:20.786Z,18.07
2023-05-19T09:32:20.941Z,18.16
2023-05-19T09:33:20.906Z,18.25
2023-05-19T09:34:20.766Z,18.31
2023-05-19T09:35:20.775Z,18.42
2023-05-19T09:36:20.764Z,18.19
2023-05-19T09:37:20.785Z,18.21
2023-05-19T09:38:20.776Z,18.44
2023-05-19T09:39:20.727Z,18.56
2023-05-19T09:40:20.710Z,18.79
2023-05-19T09:41:20.722Z,18.83
2023-05-19T09:42:20.762Z,18.76
2023-05-19T09:43:20.668Z,18.89
2023-05-19T09:44:20.664Z,18.94
2023-05-19T09:45:20.652Z,19.02
2023-05-19T09:46:20.718Z,18.97
2023-05-19T09:47:20.880Z,18.54
2023-05-19T09:48:20.610Z,18.35
2023-05-19T09:49:20.593Z,18.42
2023-05-19T09:50:20.617Z,18.44
2023-05-19T09:51:20.620Z,18.60
2023-05-19T09:52:20.581Z,18.54
2023-05-19T09:53:20.575Z,18.36
2023-05-19T09:54:20.583Z,18.20
2023-05-19T09:55:20.533Z,18.19
2023-05-19T09:56:20.584Z,18.19
2023-05-19T09:57:20.536Z,18.14
2023-05-19T09:58:20.513Z,18.17
2023-05-19T09:59:20.537Z,18.44
2023-05-19T10:00:20.668Z,18.59
2023-05-19T10:01:20.555Z,18.57
2023-05-19T10:02:20.481Z,18.68
2023-05-19T10:03:20.466Z,18.53
2023-05-19T10:04:20.446Z,18.51
2023-05-19T10:05:20.842Z,18.51
2023-05-19T10:06:20.434Z,18.47
2023-05-19T10:07:20.405Z,18.76
2023-05-19T10:08:20.418Z,18.94
2023-05-19T10:09:20.440Z,18.93
2023-05-19T10:10:20.400Z,19.17
2023-05-19T10:11:20.396Z,19.23
2023-05-19T10:12:20.384Z,19.13
2023-05-19T10:13:20.355Z,19.10
2023-05-19T10:14:20.364Z,18.79
2023-05-19T10:15:22.199Z,18.74
2023-05-19T10:16:20.416Z,18.82
2023-05-19T10:17:20.321Z,18.74
2023-05-19T10:18:20.312Z,18.79
2023-05-19T10:19:20.323Z,18.86
2023-05-19T10:20:20.346Z,18.96
2023-05-19T10:21:20.476Z,19.02
2023-05-19T10:22:20.298Z,18.76
2023-05-19T10:23:20.269Z,18.60
2023-05-19T10:24:20.278Z,18.46
2023-05-19T10:25:20.230Z,18.47
2023-05-19T10:26:20.218Z,18.57
2023-05-19T10:27:20.212Z,18.59
2023-05-19T10:28:20.201Z,18.64
2023-05-19T10:29:20.219Z,18.68
2023-05-19T10:30:20.238Z,18.71
2023-05-19T10:31:20.157Z,18.65
2023-05-19T10:32:20.304Z,18.65
2023-05-19T10:33:20.184Z,18.57
2023-05-19T10:34:20.159Z,18.65
2023-05-19T10:35:21.274Z,18.47
2023-05-19T10:36:20.125Z,18.26
2023-05-19T10:37:20.110Z,18.36
2023-05-19T10:38:20.114Z,18.32
2023-05-19T10:39:20.087Z,18.25
2023-05-19T10:40:20.116Z,18.21
2023-05-19T10:41:20.080Z,18.20
2023-05-19T10:42:20.089Z,18.39
2023-05-19T10:43:20.288Z,18.50
2023-05-19T10:44:20.159Z,18.79
2023-05-19T10:45:20.051Z,19.02
2023-05-19T10:46:20.029Z,19.27
2023-05-19T10:47:20.086Z,19.35
2023-05-19T10:48:20.010Z,19.46
2023-05-19T10:49:20.036Z,19.65
2023-05-19T10:50:19.960Z,19.67
2023-05-19T10:51:19.959Z,19.67
2023-05-19T10:52:20.189Z,19.64
2023-05-19T10:53:19.936Z,19.71
2023-05-19T10:54:19.960Z,19.71
2023-05-19T10:55:19.997Z,19.60
2023-05-19T10:56:19.929Z,19.64
2023-05-19T10:57:19.892Z,19.75
2023-05-19T10:58:19.897Z,19.85
2023-05-19T10:59:19.893Z,19.67
2023-05-19T11:00:19.860Z,19.30
2023-05-19T11:01:19.965Z,19.40
2023-05-19T11:02:20.042Z,19.53
2023-05-19T11:03:19.836Z,19.79
2023-05-19T11:04:19.863Z,20.04
2023-05-19T11:05:19.838Z,20.07
2023-05-19T11:06:19.805Z,20.05
2023-05-19T11:07:19.862Z,20.16
2023-05-19T11:08:19.782Z,20.25
2023-05-19T11:09:28.394Z,20.16
2023-05-19T11:10:19.741Z,19.98
2023-05-19T11:11:19.744Z,19.82
2023-05-19T11:12:19.751Z,19.65
2023-05-19T11:13:19.736Z,19.61
2023-05-19T11:14:19.719Z,19.71
2023-05-19T11:15:19.704Z,19.86
2023-05-19T11:16:19.704Z,19.89
2023-05-19T11:17:19.709Z,20.13
2023-05-19T11:18:19.680Z,20.23
2023-05-19T11:19:19.691Z,20.56
2023-05-19T11:20:19.681Z,20.40
2023-05-19T11:21:19.685Z,20.66
2023-05-19T11:22:19.689Z,20.56
2023-05-19T11:23:19.672Z,20.48
2023-05-19T11:24:19.603Z,20.16
2023-05-19T11:25:19.618Z,20.02
2023-05-19T11:26:19.596Z,20.07
2023-05-19T11:27:19.597Z,20.22
2023-05-19T11:28:19.996Z,20.34
2023-05-19T11:29:19.607Z,20.22
2023-05-19T11:30:19.544Z,20.01
2023-05-19T11:31:19.573Z,19.85
2023-05-19T11:32:19.723Z,19.79
2023-05-19T11:33:19.635Z,19.86
2023-05-19T11:34:19.521Z,20.05
2023-05-19T11:35:19.529Z,20.16
2023-05-19T11:36:19.480Z,20.57
2023-05-19T11:37:19.471Z,20.83
2023-05-19T11:38:19.483Z,20.96
2023-05-19T11:39:19.453Z,21.01
2023-05-19T11:40:19.475Z,21.05
2023-05-19T11:41:20.826Z,21.11
2023-05-19T11:42:19.525Z,21.18
2023-05-19T11:43:19.451Z,21.15
2023-05-19T11:44:19.431Z,21.22
2023-05-19T11:45:19.426Z,21.21
2023-05-19T11:46:19.427Z,21.28
2023-05-19T11:47:19.420Z,21.26
2023-05-19T11:48:19.405Z,20.93
2023-05-19T11:49:19.361Z,20.87
2023-05-19T11:50:19.341Z,20.85
2023-05-19T11:51:19.324Z,21.08
2023-05-19T11:52:19.334Z,21.21
2023-05-19T11:53:19.334Z,21.38
2023-05-19T11:54:19.311Z,21.64
2023-05-19T11:55:19.302Z,21.90
2023-05-19T11:56:19.284Z,21.83
2023-05-19T11:57:19.292Z,21.94
2023-05-19T11:58:19.252Z,21.91
2023-05-19T11:59:19.259Z,21.89
2023-05-19T12:00:20.195Z,21.55
2023-05-19T12:01:19.264Z,21.59
2023-05-19T12:02:19.254Z,21.99
2023-05-19T12:03:19.333Z,22.45
2023-05-19T12:04:19.209Z,22.85
2023-05-19T12:05:19.298Z,23.22
2023-05-19T12:06:19.237Z,23.45
2023-05-19T12:07:19.154Z,23.49
2023-05-19T12:08:19.134Z,23.16
2023-05-19T12:09:19.146Z,22.82
2023-05-19T12:10:19.128Z,22.48
2023-05-19T12:11:20.080Z,22.21
2023-05-19T12:12:19.138Z,22.35
2023-05-19T12:13:19.115Z,22.35
2023-05-19T12:14:19.086Z,22.38
2023-05-19T12:15:19.164Z,22.08
2023-05-19T12:16:19.162Z,21.48
2023-05-19T12:17:19.720Z,21.08
2023-05-19T12:18:19.037Z,20.85
2023-05-19T12:19:19.089Z,20.87
2023-05-19T12:20:19.097Z,20.71
2023-05-19T12:21:19.027Z,20.73
2023-05-19T12:22:19.010Z,21.03
2023-05-19T12:23:18.979Z,21.26
2023-05-19T12:24:18.963Z,21.15
2023-05-19T12:25:19.002Z,21.31
2023-05-19T12:26:18.959Z,21.81
2023-05-19T12:27:18.983Z,21.75
2023-05-19T12:28:18.948Z,21.66
2023-05-19T12:29:18.918Z,21.49
2023-05-19T12:30:18.942Z,21.34
2023-05-19T12:31:18.944Z,21.37
2023-05-19T12:32:18.878Z,21.28
2023-05-19T12:33:18.915Z,21.08
2023-05-19T12:34:18.864Z,20.96
2023-05-19T12:35:18.860Z,21.01
2023-05-19T12:36:19.223Z,21.06
2023-05-19T12:37:18.849Z,21.11
2023-05-19T12:38:18.847Z,20.91
2023-05-19T12:39:20.132Z,20.97
2023-05-19T12:40:18.805Z,20.75
2023-05-19T12:41:18.812Z,20.64
2023-05-19T12:42:18.784Z,20.66
2023-05-19T12:43:18.804Z,20.75
2023-05-19T12:44:18.778Z,20.85
2023-05-19T12:45:18.797Z,20.97
2023-05-19T12:46:18.864Z,21.00
2023-05-19T12:47:19.724Z,21.01
2023-05-19T12:48:18.753Z,21.11
2023-05-19T12:49:18.725Z,21.22
2023-05-19T12:50:18.727Z,21.22
2023-05-19T12:51:18.679Z,21.22
2023-05-19T12:52:18.690Z,20.97
2023-05-19T12:53:18.670Z,20.91
2023-05-19T12:54:18.762Z,21.06
2023-05-19T12:55:18.660Z,21.33
2023-05-19T12:56:18.651Z,21.68
2023-05-19T12:57:18.633Z,21.52
2023-05-19T12:58:18.634Z,21.43
2023-05-19T12:59:26.928Z,21.15
2023-05-19T13:00:18.660Z,21.27
2023-05-19T13:01:18.774Z,21.46